sensor_id;sensor_type;location;lat;lon;timestamp;P1;durP1;ratioP1;P2;durP2;ratioP2
70946;SDS011;58605;48.700;8.760;2022-07-23T00:02:25;7.55;;;6.82;;
70946;SDS011;58605;48.700;8.760;2022-07-23T00:04:51;6.95;;;6.38;;
70946;SDS011;58605;48.700;8.760;2022-07-23T00:07:17;6.40;;;5.75;;
70946;SDS011;58605;48.700;8.760;2022-07-23T00:09:45;6.60;;;6.00;;
70946;SDS011;58605;48.700;8.760;2022-07-23T00:12:11;6.18;;;5.63;;
70946;SDS011;58605;48.700;8.760;2022-07-23T00:14:37;6.88;;;6.20;;
70946;SDS011;58605;48.700;8.760;2022-07-23T00:17:03;6.43;;;5.88;;
70946;SDS011;58605;48.700;8.760;2022-07-23T00:19:29;5.65;;;5.05;;
70946;SDS011;58605;48.700;8.760;2022-07-23T00:21:55;6.75;;;6.13;;
70946;SDS011;58605;48.700;8.760;2022-07-23T00:24:21;7.25;;;6.70;;
70946;SDS011;58605;48.700;8.760;2022-07-23T00:26:49;7.03;;;6.40;;
70946;SDS011;58605;48.700;8.760;2022-07-23T00:29:15;7.00;;;6.38;;
70946;SDS011;58605;48.700;8.760;2022-07-23T00:31:41;6.55;;;5.90;;
70946;SDS011;58605;48.700;8.760;2022-07-23T00:34:07;6.75;;;6.15;;
70946;SDS011;58605;48.700;8.760;2022-07-23T00:36:34;6.78;;;6.22;;
70946;SDS011;58605;48.700;8.760;2022-07-23T00:39:00;6.97;;;5.78;;
70946;SDS011;58605;48.700;8.760;2022-07-23T00:41:26;6.88;;;6.28;;
70946;SDS011;58605;48.700;8.760;2022-07-23T00:43:55;7.45;;;6.85;;
70946;SDS011;58605;48.700;8.760;2022-07-23T00:46:21;6.28;;;5.68;;
70946;SDS011;58605;48.700;8.760;2022-07-23T00:48:48;6.20;;;5.72;;
70946;SDS011;58605;48.700;8.760;2022-07-23T00:51:14;5.53;;;5.13;;
70946;SDS011;58605;48.700;8.760;2022-07-23T00:53:41;6.03;;;5.53;;
70946;SDS011;58605;48.700;8.760;2022-07-23T00:56:08;5.90;;;5.40;;
70946;SDS011;58605;48.700;8.760;2022-07-23T00:58:35;6.20;;;5.55;;
70946;SDS011;58605;48.700;8.760;2022-07-23T01:01:03;5.90;;;5.35;;
70946;SDS011;58605;48.700;8.760;2022-07-23T01:03:29;5.25;;;4.85;;
70946;SDS011;58605;48.700;8.760;2022-07-23T01:05:55;4.95;;;4.53;;
70946;SDS011;58605;48.700;8.760;2022-07-23T01:08:23;6.28;;;5.78;;
70946;SDS011;58605;48.700;8.760;2022-07-23T01:10:49;6.28;;;5.68;;
70946;SDS011;58605;48.700;8.760;2022-07-23T01:13:16;6.28;;;5.78;;
70946;SDS011;58605;48.700;8.760;2022-07-23T01:15:42;6.30;;;5.57;;
70946;SDS011;58605;48.700;8.760;2022-07-23T01:18:10;6.20;;;5.70;;
70946;SDS011;58605;48.700;8.760;2022-07-23T01:20:37;6.93;;;6.25;;
70946;SDS011;58605;48.700;8.760;2022-07-23T01:23:05;6.18;;;5.68;;
70946;SDS011;58605;48.700;8.760;2022-07-23T01:25:31;6.07;;;5.60;;
70946;SDS011;58605;48.700;8.760;2022-07-23T01:27:57;6.90;;;6.30;;
70946;SDS011;58605;48.700;8.760;2022-07-23T01:30:23;6.88;;;6.28;;
70946;SDS011;58605;48.700;8.760;2022-07-23T01:32:50;6.85;;;6.25;;
70946;SDS011;58605;48.700;8.760;2022-07-23T01:35:16;6.50;;;5.90;;
70946;SDS011;58605;48.700;8.760;2022-07-23T01:37:42;6.40;;;5.90;;
70946;SDS011;58605;48.700;8.760;2022-07-23T01:40:09;6.68;;;6.13;;
70946;SDS011;58605;48.700;8.760;2022-07-23T01:42:36;7.28;;;6.68;;
70946;SDS011;58605;48.700;8.760;2022-07-23T01:45:02;6.88;;;6.30;;
70946;SDS011;58605;48.700;8.760;2022-07-23T01:47:29;6.68;;;6.18;;
70946;SDS011;58605;48.700;8.760;2022-07-23T01:49:55;7.50;;;6.80;;
70946;SDS011;58605;48.700;8.760;2022-07-23T01:52:21;6.78;;;6.18;;
70946;SDS011;58605;48.700;8.760;2022-07-23T01:54:47;6.97;;;6.40;;
70946;SDS011;58605;48.700;8.760;2022-07-23T01:57:15;7.25;;;6.65;;
70946;SDS011;58605;48.700;8.760;2022-07-23T01:59:41;7.85;;;7.05;;
70946;SDS011;58605;48.700;8.760;2022-07-23T02:02:07;6.75;;;6.25;;
70946;SDS011;58605;48.700;8.760;2022-07-23T02:04:34;8.32;;;7.63;;
70946;SDS011;58605;48.700;8.760;2022-07-23T02:07:01;7.38;;;6.75;;
70946;SDS011;58605;48.700;8.760;2022-07-23T02:09:28;7.07;;;6.47;;
70946;SDS011;58605;48.700;8.760;2022-07-23T02:11:54;7.57;;;6.88;;
70946;SDS011;58605;48.700;8.760;2022-07-23T02:14:21;7.10;;;6.53;;
70946;SDS011;58605;48.700;8.760;2022-07-23T02:16:47;7.70;;;7.00;;
70946;SDS011;58605;48.700;8.760;2022-07-23T02:19:13;7.05;;;6.45;;
70946;SDS011;58605;48.700;8.760;2022-07-23T02:21:39;7.25;;;6.55;;
70946;SDS011;58605;48.700;8.760;2022-07-23T02:24:05;7.07;;;6.30;;
70946;SDS011;58605;48.700;8.760;2022-07-23T02:26:32;7.75;;;6.78;;
70946;SDS011;58605;48.700;8.760;2022-07-23T02:28:59;7.03;;;6.32;;
70946;SDS011;58605;48.700;8.760;2022-07-23T02:31:28;6.15;;;5.65;;
70946;SDS011;58605;48.700;8.760;2022-07-23T02:33:54;5.30;;;4.90;;
70946;SDS011;58605;48.700;8.760;2022-07-23T02:36:20;6.00;;;5.50;;
70946;SDS011;58605;48.700;8.760;2022-07-23T02:38:46;6.38;;;5.85;;
70946;SDS011;58605;48.700;8.760;2022-07-23T02:41:12;6.38;;;5.88;;
70946;SDS011;58605;48.700;8.760;2022-07-23T02:43:38;6.95;;;6.25;;
70946;SDS011;58605;48.700;8.760;2022-07-23T02:46:04;7.05;;;6.45;;
70946;SDS011;58605;48.700;8.760;2022-07-23T02:48:32;8.77;;;7.53;;
70946;SDS011;58605;48.700;8.760;2022-07-23T02:50:58;8.57;;;6.75;;
70946;SDS011;58605;48.700;8.760;2022-07-23T02:53:24;6.70;;;6.20;;
70946;SDS011;58605;48.700;8.760;2022-07-23T02:55:50;7.75;;;7.13;;
70946;SDS011;58605;48.700;8.760;2022-07-23T02:58:17;7.53;;;6.82;;
70946;SDS011;58605;48.700;8.760;2022-07-23T03:00:43;7.78;;;7.10;;
70946;SDS011;58605;48.700;8.760;2022-07-23T03:03:09;7.88;;;7.13;;
70946;SDS011;58605;48.700;8.760;2022-07-23T03:05:37;7.72;;;7.05;;
70946;SDS011;58605;48.700;8.760;2022-07-23T03:08:03;8.25;;;7.45;;
70946;SDS011;58605;48.700;8.760;2022-07-23T03:10:29;7.97;;;7.10;;
70946;SDS011;58605;48.700;8.760;2022-07-23T03:12:55;7.38;;;6.68;;
70946;SDS011;58605;48.700;8.760;2022-07-23T03:15:21;7.55;;;6.75;;
70946;SDS011;58605;48.700;8.760;2022-07-23T03:17:47;7.20;;;6.63;;
70946;SDS011;58605;48.700;8.760;2022-07-23T03:20:13;8.20;;;7.53;;
70946;SDS011;58605;48.700;8.760;2022-07-23T03:22:41;7.97;;;7.28;;
70946;SDS011;58605;48.700;8.760;2022-07-23T03:25:08;8.25;;;7.45;;
70946;SDS011;58605;48.700;8.760;2022-07-23T03:27:34;8.75;;;8.07;;
70946;SDS011;58605;48.700;8.760;2022-07-23T03:30:00;8.45;;;7.80;;
70946;SDS011;58605;48.700;8.760;2022-07-23T03:32:26;9.00;;;8.30;;
70946;SDS011;58605;48.700;8.760;2022-07-23T03:34:53;8.70;;;8.00;;
70946;SDS011;58605;48.700;8.760;2022-07-23T03:37:19;9.02;;;8.25;;
70946;SDS011;58605;48.700;8.760;2022-07-23T03:39:47;8.98;;;8.13;;
70946;SDS011;58605;48.700;8.760;2022-07-23T03:42:13;9.18;;;8.45;;
70946;SDS011;58605;48.700;8.760;2022-07-23T03:44:39;8.90;;;8.10;;
70946;SDS011;58605;48.700;8.760;2022-07-23T03:47:05;9.93;;;9.02;;
70946;SDS011;58605;48.700;8.760;2022-07-23T03:49:31;8.65;;;7.95;;
70946;SDS011;58605;48.700;8.760;2022-07-23T03:51:58;8.90;;;8.10;;
70946;SDS011;58605;48.700;8.760;2022-07-23T03:54:24;10.20;;;9.35;;
70946;SDS011;58605;48.700;8.760;2022-07-23T03:56:51;9.43;;;8.52;;
70946;SDS011;58605;48.700;8.760;2022-07-23T03:59:17;9.98;;;8.85;;
70946;SDS011;58605;48.700;8.760;2022-07-23T04:01:44;8.90;;;8.18;;
70946;SDS011;58605;48.700;8.760;2022-07-23T04:04:10;9.82;;;8.93;;
70946;SDS011;58605;48.700;8.760;2022-07-23T04:06:36;9.32;;;8.38;;
70946;SDS011;58605;48.700;8.760;2022-07-23T04:09:02;9.10;;;8.25;;
70946;SDS011;58605;48.700;8.760;2022-07-23T04:11:29;8.73;;;8.02;;
70946;SDS011;58605;48.700;8.760;2022-07-23T04:13:57;9.18;;;8.27;;
70946;SDS011;58605;48.700;8.760;2022-07-23T04:16:23;9.65;;;8.75;;
70946;SDS011;58605;48.700;8.760;2022-07-23T04:18:49;8.90;;;8.10;;
70946;SDS011;58605;48.700;8.760;2022-07-23T04:21:15;8.57;;;7.88;;
70946;SDS011;58605;48.700;8.760;2022-07-23T04:23:41;8.30;;;7.60;;
70946;SDS011;58605;48.700;8.760;2022-07-23T04:26:07;8.77;;;7.97;;
70946;SDS011;58605;48.700;8.760;2022-07-23T04:28:33;7.82;;;7.20;;
70946;SDS011;58605;48.700;8.760;2022-07-23T04:31:01;8.20;;;7.50;;
70946;SDS011;58605;48.700;8.760;2022-07-23T04:33:27;8.07;;;7.38;;
70946;SDS011;58605;48.700;8.760;2022-07-23T04:35:53;8.23;;;7.53;;
70946;SDS011;58605;48.700;8.760;2022-07-23T04:38:19;8.65;;;7.80;;
70946;SDS011;58605;48.700;8.760;2022-07-23T04:40:45;8.50;;;7.88;;
70946;SDS011;58605;48.700;8.760;2022-07-23T04:43:11;8.38;;;7.60;;
70946;SDS011;58605;48.700;8.760;2022-07-23T04:45:37;8.43;;;7.82;;
70946;SDS011;58605;48.700;8.760;2022-07-23T04:48:06;8.75;;;8.05;;
70946;SDS011;58605;48.700;8.760;2022-07-23T04:50:32;8.35;;;7.63;;
70946;SDS011;58605;48.700;8.760;2022-07-23T04:52:58;8.30;;;7.60;;
70946;SDS011;58605;48.700;8.760;2022-07-23T04:55:24;8.55;;;7.88;;
70946;SDS011;58605;48.700;8.760;2022-07-23T04:57:53;8.18;;;7.55;;
70946;SDS011;58605;48.700;8.760;2022-07-23T05:00:19;8.20;;;7.50;;
70946;SDS011;58605;48.700;8.760;2022-07-23T05:02:45;7.85;;;7.25;;
70946;SDS011;58605;48.700;8.760;2022-07-23T05:05:13;8.55;;;7.85;;
70946;SDS011;58605;48.700;8.760;2022-07-23T05:07:39;8.52;;;7.60;;
70946;SDS011;58605;48.700;8.760;2022-07-23T05:10:05;9.70;;;7.85;;
70946;SDS011;58605;48.700;8.760;2022-07-23T05:12:32;8.43;;;7.72;;
70946;SDS011;58605;48.700;8.760;2022-07-23T05:14:58;8.57;;;7.80;;
70946;SDS011;58605;48.700;8.760;2022-07-23T05:17:24;9.45;;;8.65;;
70946;SDS011;58605;48.700;8.760;2022-07-23T05:19:50;8.00;;;7.30;;
70946;SDS011;58605;48.700;8.760;2022-07-23T05:22:18;8.55;;;7.85;;
70946;SDS011;58605;48.700;8.760;2022-07-23T05:24:44;8.32;;;7.53;;
70946;SDS011;58605;48.700;8.760;2022-07-23T05:27:10;11.32;;;8.52;;
70946;SDS011;58605;48.700;8.760;2022-07-23T05:29:36;8.15;;;7.47;;
70946;SDS011;58605;48.700;8.760;2022-07-23T05:32:02;8.48;;;7.78;;
70946;SDS011;58605;48.700;8.760;2022-07-23T05:34:28;8.25;;;7.57;;
70946;SDS011;58605;48.700;8.760;2022-07-23T05:37:01;7.75;;;7.15;;
70946;SDS011;58605;48.700;8.760;2022-07-23T05:39:29;10.30;;;7.75;;
70946;SDS011;58605;48.700;8.760;2022-07-23T05:41:55;7.88;;;7.07;;
70946;SDS011;58605;48.700;8.760;2022-07-23T05:44:21;8.52;;;7.82;;
70946;SDS011;58605;48.700;8.760;2022-07-23T05:46:49;9.00;;;8.30;;
70946;SDS011;58605;48.700;8.760;2022-07-23T05:49:15;8.65;;;7.82;;
70946;SDS011;58605;48.700;8.760;2022-07-23T05:51:41;9.20;;;7.85;;
70946;SDS011;58605;48.700;8.760;2022-07-23T05:54:07;8.05;;;7.35;;
70946;SDS011;58605;48.700;8.760;2022-07-23T05:56:35;7.63;;;7.03;;
70946;SDS011;58605;48.700;8.760;2022-07-23T05:59:01;8.57;;;7.88;;
70946;SDS011;58605;48.700;8.760;2022-07-23T06:01:39;9.18;;;8.38;;
70946;SDS011;58605;48.700;8.760;2022-07-23T06:04:06;8.13;;;7.43;;
70946;SDS011;58605;48.700;8.760;2022-07-23T06:06:32;8.57;;;7.80;;
70946;SDS011;58605;48.700;8.760;2022-07-23T06:08:59;8.02;;;7.45;;
70946;SDS011;58605;48.700;8.760;2022-07-23T06:11:25;7.95;;;7.32;;
70946;SDS011;58605;48.700;8.760;2022-07-23T06:13:52;7.88;;;7.28;;
70946;SDS011;58605;48.700;8.760;2022-07-23T06:16:18;9.82;;;7.45;;
70946;SDS011;58605;48.700;8.760;2022-07-23T06:18:44;7.72;;;7.13;;
70946;SDS011;58605;48.700;8.760;2022-07-23T06:21:11;7.97;;;7.18;;
70946;SDS011;58605;48.700;8.760;2022-07-23T06:23:37;8.38;;;7.57;;
70946;SDS011;58605;48.700;8.760;2022-07-23T06:26:03;8.60;;;7.80;;
70946;SDS011;58605;48.700;8.760;2022-07-23T06:28:36;8.57;;;7.78;;
70946;SDS011;58605;48.700;8.760;2022-07-23T06:31:06;7.75;;;7.00;;
70946;SDS011;58605;48.700;8.760;2022-07-23T06:33:33;8.35;;;7.65;;
70946;SDS011;58605;48.700;8.760;2022-07-23T06:35:59;7.88;;;7.28;;
70946;SDS011;58605;48.700;8.760;2022-07-23T06:38:25;8.23;;;7.47;;
70946;SDS011;58605;48.700;8.760;2022-07-23T06:40:51;8.73;;;7.93;;
70946;SDS011;58605;48.700;8.760;2022-07-23T06:43:17;8.25;;;7.55;;
70946;SDS011;58605;48.700;8.760;2022-07-23T06:45:43;7.53;;;6.80;;
70946;SDS011;58605;48.700;8.760;2022-07-23T06:48:11;7.90;;;7.15;;
70946;SDS011;58605;48.700;8.760;2022-07-23T06:50:37;7.97;;;7.18;;
70946;SDS011;58605;48.700;8.760;2022-07-23T06:53:03;8.30;;;7.38;;
70946;SDS011;58605;48.700;8.760;2022-07-23T06:55:29;8.05;;;6.82;;
70946;SDS011;58605;48.700;8.760;2022-07-23T06:57:56;7.85;;;7.15;;
70946;SDS011;58605;48.700;8.760;2022-07-23T07:00:23;7.97;;;7.38;;
70946;SDS011;58605;48.700;8.760;2022-07-23T07:02:53;8.25;;;7.55;;
70946;SDS011;58605;48.700;8.760;2022-07-23T07:05:21;7.53;;;6.90;;
70946;SDS011;58605;48.700;8.760;2022-07-23T07:07:48;8.00;;;7.40;;
70946;SDS011;58605;48.700;8.760;2022-07-23T07:10:14;8.30;;;7.50;;
70946;SDS011;58605;48.700;8.760;2022-07-23T07:12:42;7.85;;;7.25;;
70946;SDS011;58605;48.700;8.760;2022-07-23T07:15:08;8.80;;;8.10;;
70946;SDS011;58605;48.700;8.760;2022-07-23T07:17:35;8.02;;;7.40;;
70946;SDS011;58605;48.700;8.760;2022-07-23T07:20:01;8.32;;;7.63;;
70946;SDS011;58605;48.700;8.760;2022-07-23T07:22:28;8.63;;;7.88;;
70946;SDS011;58605;48.700;8.760;2022-07-23T07:24:54;8.63;;;7.55;;
70946;SDS011;58605;48.700;8.760;2022-07-23T07:27:20;8.73;;;8.02;;
70946;SDS011;58605;48.700;8.760;2022-07-23T07:29:47;8.00;;;7.40;;
70946;SDS011;58605;48.700;8.760;2022-07-23T07:32:13;8.43;;;7.68;;
70946;SDS011;58605;48.700;8.760;2022-07-23T07:34:39;8.30;;;7.60;;
70946;SDS011;58605;48.700;8.760;2022-07-23T07:37:05;8.23;;;7.43;;
70946;SDS011;58605;48.700;8.760;2022-07-23T07:39:32;8.30;;;7.65;;
70946;SDS011;58605;48.700;8.760;2022-07-23T07:41:58;8.60;;;7.68;;
70946;SDS011;58605;48.700;8.760;2022-07-23T07:44:25;8.23;;;7.53;;
70946;SDS011;58605;48.700;8.760;2022-07-23T07:46:51;8.52;;;7.75;;
70946;SDS011;58605;48.700;8.760;2022-07-23T07:49:18;8.43;;;7.63;;
70946;SDS011;58605;48.700;8.760;2022-07-23T07:51:44;7.70;;;7.00;;
70946;SDS011;58605;48.700;8.760;2022-07-23T07:54:11;7.57;;;6.97;;
70946;SDS011;58605;48.700;8.760;2022-07-23T07:56:40;8.10;;;7.40;;
70946;SDS011;58605;48.700;8.760;2022-07-23T07:59:06;7.32;;;6.72;;
70946;SDS011;58605;48.700;8.760;2022-07-23T08:01:32;8.35;;;7.40;;
70946;SDS011;58605;48.700;8.760;2022-07-23T08:03:58;8.10;;;7.40;;
70946;SDS011;58605;48.700;8.760;2022-07-23T08:06:24;7.85;;;7.15;;
70946;SDS011;58605;48.700;8.760;2022-07-23T08:08:54;8.05;;;7.35;;
70946;SDS011;58605;48.700;8.760;2022-07-23T08:11:20;7.80;;;7.20;;
70946;SDS011;58605;48.700;8.760;2022-07-23T08:13:47;7.80;;;7.00;;
70946;SDS011;58605;48.700;8.760;2022-07-23T08:16:13;7.85;;;7.15;;
70946;SDS011;58605;48.700;8.760;2022-07-23T08:18:39;7.32;;;6.70;;
70946;SDS011;58605;48.700;8.760;2022-07-23T08:21:06;7.25;;;6.55;;
70946;SDS011;58605;48.700;8.760;2022-07-23T08:23:33;7.45;;;6.88;;
70946;SDS011;58605;48.700;8.760;2022-07-23T08:26:00;7.93;;;7.15;;
70946;SDS011;58605;48.700;8.760;2022-07-23T08:28:26;7.40;;;6.80;;
70946;SDS011;58605;48.700;8.760;2022-07-23T08:30:55;7.70;;;7.00;;
70946;SDS011;58605;48.700;8.760;2022-07-23T08:33:21;8.07;;;7.22;;
70946;SDS011;58605;48.700;8.760;2022-07-23T08:35:47;7.72;;;7.03;;
70946;SDS011;58605;48.700;8.760;2022-07-23T08:38:15;8.05;;;7.30;;
70946;SDS011;58605;48.700;8.760;2022-07-23T08:40:46;7.38;;;6.65;;
70946;SDS011;58605;48.700;8.760;2022-07-23T08:43:16;8.00;;;7.30;;
70946;SDS011;58605;48.700;8.760;2022-07-23T08:45:44;7.45;;;6.75;;
70946;SDS011;58605;48.700;8.760;2022-07-23T08:48:14;8.30;;;7.53;;
70946;SDS011;58605;48.700;8.760;2022-07-23T08:50:42;7.95;;;7.35;;
70946;SDS011;58605;48.700;8.760;2022-07-23T08:53:09;7.20;;;6.60;;
70946;SDS011;58605;48.700;8.760;2022-07-23T08:55:36;6.57;;;5.97;;
70946;SDS011;58605;48.700;8.760;2022-07-23T08:58:02;7.38;;;6.68;;
70946;SDS011;58605;48.700;8.760;2022-07-23T09:00:28;6.82;;;6.22;;
70946;SDS011;58605;48.700;8.760;2022-07-23T09:02:55;7.18;;;6.57;;
70946;SDS011;58605;48.700;8.760;2022-07-23T09:05:22;6.72;;;6.22;;
70946;SDS011;58605;48.700;8.760;2022-07-23T09:08:06;7.57;;;6.97;;
70946;SDS011;58605;48.700;8.760;2022-07-23T09:10:44;6.93;;;6.35;;
70946;SDS011;58605;48.700;8.760;2022-07-23T09:13:25;6.20;;;5.70;;
70946;SDS011;58605;48.700;8.760;2022-07-23T09:15:56;6.78;;;6.18;;
70946;SDS011;58605;48.700;8.760;2022-07-23T09:18:28;7.25;;;6.65;;
70946;SDS011;58605;48.700;8.760;2022-07-23T09:21:07;7.18;;;6.57;;
70946;SDS011;58605;48.700;8.760;2022-07-23T09:23:38;6.13;;;5.65;;
70946;SDS011;58605;48.700;8.760;2022-07-23T09:26:16;6.20;;;5.70;;
70946;SDS011;58605;48.700;8.760;2022-07-23T09:28:58;6.30;;;5.68;;
70946;SDS011;58605;48.700;8.760;2022-07-23T09:31:30;6.35;;;5.85;;
70946;SDS011;58605;48.700;8.760;2022-07-23T09:34:08;6.35;;;5.75;;
70946;SDS011;58605;48.700;8.760;2022-07-23T09:36:37;7.57;;;6.57;;
70946;SDS011;58605;48.700;8.760;2022-07-23T09:39:03;7.18;;;6.68;;
70946;SDS011;58605;48.700;8.760;2022-07-23T09:41:33;6.45;;;5.95;;
70946;SDS011;58605;48.700;8.760;2022-07-23T09:44:06;7.65;;;7.05;;
70946;SDS011;58605;48.700;8.760;2022-07-23T09:46:36;7.40;;;6.70;;
70946;SDS011;58605;48.700;8.760;2022-07-23T09:49:10;7.03;;;6.32;;
70946;SDS011;58605;48.700;8.760;2022-07-23T09:51:44;6.22;;;5.72;;
70946;SDS011;58605;48.700;8.760;2022-07-23T09:54:20;7.20;;;6.50;;
70946;SDS011;58605;48.700;8.760;2022-07-23T09:56:49;6.75;;;6.18;;
70946;SDS011;58605;48.700;8.760;2022-07-23T09:59:16;6.18;;;5.78;;
70946;SDS011;58605;48.700;8.760;2022-07-23T10:01:44;6.65;;;6.05;;
70946;SDS011;58605;48.700;8.760;2022-07-23T10:04:11;6.82;;;6.25;;
70946;SDS011;58605;48.700;8.760;2022-07-23T10:06:38;6.95;;;6.45;;
70946;SDS011;58605;48.700;8.760;2022-07-23T10:09:07;7.20;;;6.55;;
70946;SDS011;58605;48.700;8.760;2022-07-23T10:11:37;7.18;;;6.57;;
70946;SDS011;58605;48.700;8.760;2022-07-23T10:14:04;6.80;;;6.30;;
70946;SDS011;58605;48.700;8.760;2022-07-23T10:16:31;6.75;;;6.25;;
70946;SDS011;58605;48.700;8.760;2022-07-23T10:18:57;6.85;;;6.35;;
70946;SDS011;58605;48.700;8.760;2022-07-23T10:21:25;7.35;;;6.50;;
70946;SDS011;58605;48.700;8.760;2022-07-23T10:24:04;7.00;;;6.32;;
70946;SDS011;58605;48.700;8.760;2022-07-23T10:26:45;6.93;;;6.32;;
70946;SDS011;58605;48.700;8.760;2022-07-23T10:29:24;7.15;;;6.55;;
70946;SDS011;58605;48.700;8.760;2022-07-23T10:32:02;6.18;;;5.68;;
70946;SDS011;58605;48.700;8.760;2022-07-23T10:34:36;7.13;;;6.57;;
70946;SDS011;58605;48.700;8.760;2022-07-23T10:37:12;7.53;;;6.93;;
70946;SDS011;58605;48.700;8.760;2022-07-23T10:42:36;7.30;;;6.70;;
70946;SDS011;58605;48.700;8.760;2022-07-23T10:45:15;7.88;;;7.18;;
70946;SDS011;58605;48.700;8.760;2022-07-23T10:47:48;7.18;;;6.60;;
70946;SDS011;58605;48.700;8.760;2022-07-23T10:50:16;7.85;;;7.20;;
70946;SDS011;58605;48.700;8.760;2022-07-23T10:52:55;8.02;;;7.43;;
70946;SDS011;58605;48.700;8.760;2022-07-23T10:55:41;7.18;;;6.57;;
70946;SDS011;58605;48.700;8.760;2022-07-23T10:58:08;7.30;;;6.70;;
70946;SDS011;58605;48.700;8.760;2022-07-23T11:00:35;7.75;;;7.07;;
70946;SDS011;58605;48.700;8.760;2022-07-23T11:03:03;7.28;;;6.68;;
70946;SDS011;58605;48.700;8.760;2022-07-23T11:05:42;7.13;;;6.53;;
70946;SDS011;58605;48.700;8.760;2022-07-23T11:08:11;7.97;;;7.35;;
70946;SDS011;58605;48.700;8.760;2022-07-23T11:10:45;7.18;;;6.57;;
70946;SDS011;58605;48.700;8.760;2022-07-23T11:13:29;6.90;;;6.30;;
70946;SDS011;58605;48.700;8.760;2022-07-23T11:16:04;7.55;;;6.85;;
70946;SDS011;58605;48.700;8.760;2022-07-23T11:21:40;7.40;;;6.85;;
70946;SDS011;58605;48.700;8.760;2022-07-23T11:24:17;7.68;;;6.97;;
70946;SDS011;58605;48.700;8.760;2022-07-23T11:26:50;7.43;;;6.78;;
70946;SDS011;58605;48.700;8.760;2022-07-23T11:29:41;7.75;;;7.15;;
70946;SDS011;58605;48.700;8.760;2022-07-23T11:32:26;7.68;;;7.05;;
70946;SDS011;58605;48.700;8.760;2022-07-23T11:34:55;7.50;;;6.80;;
70946;SDS011;58605;48.700;8.760;2022-07-23T11:40:07;6.63;;;6.13;;
70946;SDS011;58605;48.700;8.760;2022-07-23T11:42:37;7.70;;;7.13;;
70946;SDS011;58605;48.700;8.760;2022-07-23T11:45:05;7.38;;;6.82;;
70946;SDS011;58605;48.700;8.760;2022-07-23T11:47:32;8.35;;;7.65;;
70946;SDS011;58605;48.700;8.760;2022-07-23T11:49:59;8.00;;;7.40;;
70946;SDS011;58605;48.700;8.760;2022-07-23T11:52:26;8.23;;;7.53;;
70946;SDS011;58605;48.700;8.760;2022-07-23T11:54:55;8.57;;;7.72;;
70946;SDS011;58605;48.700;8.760;2022-07-23T11:57:24;7.93;;;7.22;;
70946;SDS011;58605;48.700;8.760;2022-07-23T11:59:53;8.40;;;7.50;;
70946;SDS011;58605;48.700;8.760;2022-07-23T12:02:21;8.38;;;7.68;;
70946;SDS011;58605;48.700;8.760;2022-07-23T12:04:48;8.45;;;7.75;;
70946;SDS011;58605;48.700;8.760;2022-07-23T12:10:04;7.97;;;7.38;;
70946;SDS011;58605;48.700;8.760;2022-07-23T12:12:36;7.97;;;7.32;;
70946;SDS011;58605;48.700;8.760;2022-07-23T12:15:05;8.45;;;7.75;;
70946;SDS011;58605;48.700;8.760;2022-07-23T12:17:32;7.90;;;7.20;;
70946;SDS011;58605;48.700;8.760;2022-07-23T12:20:00;7.38;;;6.78;;
70946;SDS011;58605;48.700;8.760;2022-07-23T12:22:35;8.15;;;7.35;;
70946;SDS011;58605;48.700;8.760;2022-07-23T12:25:03;7.68;;;7.07;;
70946;SDS011;58605;48.700;8.760;2022-07-23T12:27:31;7.63;;;7.03;;
70946;SDS011;58605;48.700;8.760;2022-07-23T12:29:58;7.38;;;6.75;;
70946;SDS011;58605;48.700;8.760;2022-07-23T12:32:26;7.88;;;7.28;;
70946;SDS011;58605;48.700;8.760;2022-07-23T12:35:02;7.43;;;6.82;;
70946;SDS011;58605;48.700;8.760;2022-07-23T12:37:30;8.00;;;7.30;;
70946;SDS011;58605;48.700;8.760;2022-07-23T12:39:57;7.43;;;6.78;;
70946;SDS011;58605;48.700;8.760;2022-07-23T12:42:24;7.47;;;6.78;;
70946;SDS011;58605;48.700;8.760;2022-07-23T12:45:03;7.57;;;6.97;;
70946;SDS011;58605;48.700;8.760;2022-07-23T12:47:32;8.38;;;7.68;;
70946;SDS011;58605;48.700;8.760;2022-07-23T12:50:39;8.07;;;7.38;;
70946;SDS011;58605;48.700;8.760;2022-07-23T12:53:09;7.30;;;6.70;;
70946;SDS011;58605;48.700;8.760;2022-07-23T12:55:37;7.72;;;6.97;;
70946;SDS011;58605;48.700;8.760;2022-07-23T12:58:08;7.80;;;7.20;;
70946;SDS011;58605;48.700;8.760;2022-07-23T13:00:51;8.00;;;7.25;;
70946;SDS011;58605;48.700;8.760;2022-07-23T13:03:28;7.65;;;6.95;;
70946;SDS011;58605;48.700;8.760;2022-07-23T13:06:03;7.30;;;6.70;;
70946;SDS011;58605;48.700;8.760;2022-07-23T13:08:30;7.97;;;7.30;;
70946;SDS011;58605;48.700;8.760;2022-07-23T13:10:58;8.40;;;7.60;;
70946;SDS011;58605;48.700;8.760;2022-07-23T13:13:25;8.05;;;7.35;;
70946;SDS011;58605;48.700;8.760;2022-07-23T13:15:53;7.88;;;7.28;;
70946;SDS011;58605;48.700;8.760;2022-07-23T13:18:20;8.65;;;7.80;;
70946;SDS011;58605;48.700;8.760;2022-07-23T13:20:48;7.70;;;7.00;;
70946;SDS011;58605;48.700;8.760;2022-07-23T13:23:14;8.10;;;7.43;;
70946;SDS011;58605;48.700;8.760;2022-07-23T13:25:41;7.80;;;7.20;;
70946;SDS011;58605;48.700;8.760;2022-07-23T13:28:07;9.35;;;8.25;;
70946;SDS011;58605;48.700;8.760;2022-07-23T13:30:33;8.48;;;7.78;;
70946;SDS011;58605;48.700;8.760;2022-07-23T13:33:00;7.82;;;7.13;;
70946;SDS011;58605;48.700;8.760;2022-07-23T13:35:27;7.78;;;7.18;;
70946;SDS011;58605;48.700;8.760;2022-07-23T13:37:54;8.13;;;7.38;;
70946;SDS011;58605;48.700;8.760;2022-07-23T13:40:20;7.50;;;6.80;;
70946;SDS011;58605;48.700;8.760;2022-07-23T13:42:47;8.15;;;7.45;;
70946;SDS011;58605;48.700;8.760;2022-07-23T13:45:13;8.00;;;7.40;;
70946;SDS011;58605;48.700;8.760;2022-07-23T13:47:39;8.10;;;7.40;;
70946;SDS011;58605;48.700;8.760;2022-07-23T13:50:05;7.55;;;6.78;;
70946;SDS011;58605;48.700;8.760;2022-07-23T13:52:32;8.63;;;7.38;;
70946;SDS011;58605;48.700;8.760;2022-07-23T13:55:00;8.00;;;7.38;;
70946;SDS011;58605;48.700;8.760;2022-07-23T13:57:26;7.40;;;6.70;;
70946;SDS011;58605;48.700;8.760;2022-07-23T13:59:52;7.25;;;6.75;;
70946;SDS011;58605;48.700;8.760;2022-07-23T14:02:18;7.55;;;6.95;;
70946;SDS011;58605;48.700;8.760;2022-07-23T14:04:44;7.55;;;6.85;;
70946;SDS011;58605;48.700;8.760;2022-07-23T14:07:11;7.90;;;7.20;;
70946;SDS011;58605;48.700;8.760;2022-07-23T14:09:37;7.80;;;7.20;;
70946;SDS011;58605;48.700;8.760;2022-07-23T14:12:05;7.82;;;7.13;;
70946;SDS011;58605;48.700;8.760;2022-07-23T14:14:31;8.27;;;7.38;;
70946;SDS011;58605;48.700;8.760;2022-07-23T14:16:57;7.57;;;6.97;;
70946;SDS011;58605;48.700;8.760;2022-07-23T14:19:24;7.38;;;6.78;;
70946;SDS011;58605;48.700;8.760;2022-07-23T14:21:50;7.65;;;6.85;;
70946;SDS011;58605;48.700;8.760;2022-07-23T14:24:16;7.40;;;6.90;;
70946;SDS011;58605;48.700;8.760;2022-07-23T14:26:42;7.70;;;7.10;;
70946;SDS011;58605;48.700;8.760;2022-07-23T14:29:10;7.00;;;6.28;;
70946;SDS011;58605;48.700;8.760;2022-07-23T14:31:36;7.88;;;7.18;;
70946;SDS011;58605;48.700;8.760;2022-07-23T14:34:02;9.43;;;7.55;;
70946;SDS011;58605;48.700;8.760;2022-07-23T14:36:28;7.68;;;7.03;;
70946;SDS011;58605;48.700;8.760;2022-07-23T14:38:54;7.30;;;6.60;;
70946;SDS011;58605;48.700;8.760;2022-07-23T14:41:20;8.93;;;7.22;;
70946;SDS011;58605;48.700;8.760;2022-07-23T14:43:46;7.43;;;6.72;;
70946;SDS011;58605;48.700;8.760;2022-07-23T14:46:14;6.97;;;6.38;;
70946;SDS011;58605;48.700;8.760;2022-07-23T14:48:40;8.18;;;7.38;;
70946;SDS011;58605;48.700;8.760;2022-07-23T14:51:06;7.30;;;6.60;;
70946;SDS011;58605;48.700;8.760;2022-07-23T14:53:32;7.63;;;6.93;;
70946;SDS011;58605;48.700;8.760;2022-07-23T14:55:58;8.02;;;6.82;;
70946;SDS011;58605;48.700;8.760;2022-07-23T14:58:24;7.70;;;6.97;;
70946;SDS011;58605;48.700;8.760;2022-07-23T15:00:51;7.32;;;6.65;;
70946;SDS011;58605;48.700;8.760;2022-07-23T15:03:18;7.30;;;6.70;;
70946;SDS011;58605;48.700;8.760;2022-07-23T15:05:44;7.72;;;6.97;;